Charlton, MA (01507)

11:16 AM EST on February 09, 2016 (GMT -0500)
Old Worcester Road | | Change Station
CLOSE
Current Station
Personal Weather Station
Location: Charlton, MA
Elevation: 912 ft
Nearby Weather Stations

Elev 912 ft 42.14 °N, 71.97 °W | Updated 37 seconds ago

Overcast
Overcast
25.9 °F
Feels Like 26 °F
N
2.7
Wind Variable Wind from South

Today
High -- | Low -- °F
--% Chance of Precip.
Yesterday
High -- | Low -- °F
Precip. -- in
Pressure 29.66 in
Visibility 10.0 miles
Clouds Mostly Cloudy 1000 ft
Overcast 2200 ft
Windchill 26 °F
Dew Point 19 °F
Humidity 76%
Rainfall 0.00 in
Snow Depth Not available.
6:52 AM 5:12 PM
New Moon, 2% visible
METAR KORH 091554Z 36006KT 10SM BKN010 OVC022 M06/M10 A2961 RMK AO2 SLP043 T10611100
Pressure 29.66 in
Visibility 10.0 miles
Clouds Mostly Cloudy 1000 ft
Overcast 2200 ft
Windchill 26 °F
Dew Point 19 °F
Humidity 76%
Rainfall 0.00 in
Snow Depth Not available.
6:52 AM 5:12 PM
New Moon, 2% visible
METAR KORH 091554Z 36006KT 10SM BKN010 OVC022 M06/M10 A2961 RMK AO2 SLP043 T10611100

10-Day Weather Forecast

Almanac

Astronomy

Feb. 09, 2016 Rise Set
Actual Time
Civil Twilight
Nautical Twilight
Astronomical Twilight
Moon
Length of Visible Light
Length of Day
Tomorrow will be .
, % of the Moon is Illuminated

Today's Extremes

State Highs State Lows

Community

WunderPhotos

Upload Photos

1,891,629 photos uploaded!

WunderBlog® & News

Nearby

Air Quality

  Air Quality AQ Index Pollutant
Not available.

Snow Depth

Station Depth Elevation

Earthquake Activity

City Distance Mag. Time & Date
Minimum magnitude displayed is 2.5.

Coastal Water Temperatures

Place Temperature

Stations

Nearby Weather Stations

Station Location Temp. Windchill Dew Point Humidity Wind Precip. Elev Updated Type
                   

Watches & Warnings

There are currently no watches in effect.